createdAt,value
2022-11-23T00:01:53.055Z,2.86
2022-11-23T00:06:57.142Z,2.88
2022-11-23T00:11:59.893Z,2.89
2022-11-23T00:17:02.663Z,2.90
2022-11-23T00:22:06.890Z,2.93
2022-11-23T00:27:09.698Z,2.95
2022-11-23T00:32:12.486Z,2.99
2022-11-23T00:37:16.657Z,3.01
2022-11-23T00:42:19.381Z,2.99
2022-11-23T00:47:22.118Z,3.00
2022-11-23T00:52:26.300Z,3.06
2022-11-23T00:57:29.020Z,3.05
2022-11-23T01:02:31.792Z,3.03
2022-11-23T01:07:35.914Z,3.04
2022-11-23T01:12:38.723Z,3.05
2022-11-23T01:17:41.447Z,3.05
2022-11-23T01:22:45.539Z,3.03
2022-11-23T01:27:48.267Z,3.02
2022-11-23T01:32:50.997Z,3.03
2022-11-23T01:37:55.171Z,3.07
2022-11-23T01:43:00.986Z,3.10
2022-11-23T01:48:06.881Z,3.11
2022-11-23T01:53:11.094Z,3.07
2022-11-23T01:58:15.847Z,3.04
2022-11-23T02:03:19.783Z,3.01
2022-11-23T02:08:24.044Z,2.95
2022-11-23T02:13:29.937Z,2.91
2022-11-23T02:18:35.165Z,2.90
2022-11-23T02:23:47.755Z,2.87
2022-11-23T02:28:56.141Z,2.82
2022-11-23T02:34:02.369Z,2.78
2022-11-23T02:39:10.113Z,2.71
2022-11-23T02:44:26.882Z,2.65
2022-11-23T02:49:29.994Z,2.62
2022-11-23T02:54:32.951Z,2.57
2022-11-23T02:59:37.351Z,2.56
2022-11-23T03:04:40.076Z,2.56
2022-11-23T03:09:42.808Z,2.56
2022-11-23T03:14:46.911Z,2.53
2022-11-23T03:19:49.665Z,2.46
2022-11-23T03:24:52.405Z,2.46
2022-11-23T03:29:56.474Z,2.51
2022-11-23T03:34:59.199Z,2.56
2022-11-23T03:40:01.914Z,2.61
2022-11-23T03:45:07.187Z,2.63
2022-11-23T03:50:10.832Z,2.65
2022-11-23T03:55:13.551Z,2.67
2022-11-23T04:00:18.296Z,2.70
2022-11-23T04:05:21.058Z,2.71
2022-11-23T04:10:24.150Z,2.70
2022-11-23T04:15:28.214Z,2.74
2022-11-23T04:20:30.932Z,2.79
2022-11-23T04:25:33.667Z,2.80
2022-11-23T04:30:37.769Z,2.86
2022-11-23T04:35:40.573Z,2.92
2022-11-23T04:40:43.294Z,2.93
2022-11-23T04:45:47.373Z,2.88
2022-11-23T04:50:54.293Z,2.86
2022-11-23T04:55:58.404Z,2.79
2022-11-23T05:01:02.500Z,2.78
2022-11-23T05:06:07.295Z,2.82
2022-11-23T05:11:10.112Z,2.87
2022-11-23T05:16:14.211Z,2.85
2022-11-23T05:21:16.937Z,2.87
2022-11-23T05:26:19.705Z,2.89
2022-11-23T05:31:23.791Z,2.90
2022-11-23T05:36:26.535Z,2.93
2022-11-23T05:41:29.252Z,2.99
2022-11-23T05:46:33.328Z,3.05
2022-11-23T05:51:36.025Z,3.08
2022-11-23T05:56:40.385Z,3.06
2022-11-23T06:01:45.200Z,2.99
2022-11-23T06:06:47.928Z,2.97
2022-11-23T06:11:50.828Z,2.95
2022-11-23T06:16:54.967Z,2.99
2022-11-23T06:21:58.142Z,3.06
2022-11-23T06:27:00.847Z,3.06
2022-11-23T06:32:05.276Z,3.05
2022-11-23T06:37:08.228Z,3.09
2022-11-23T06:42:37.255Z,3.12
2022-11-23T06:47:35.542Z,3.15
2022-11-23T06:52:38.274Z,3.16
2022-11-23T06:57:41.008Z,3.20
2022-11-23T07:02:45.154Z,3.21
2022-11-23T07:07:47.948Z,3.25
2022-11-23T07:12:50.670Z,3.27
2022-11-23T07:17:54.749Z,3.25
2022-11-23T07:23:02.105Z,3.26
2022-11-23T07:28:07.014Z,3.32
2022-11-23T07:33:12.520Z,3.41
2022-11-23T07:38:15.388Z,3.47
2022-11-23T07:43:18.140Z,3.49
2022-11-23T07:48:22.421Z,3.51
2022-11-23T07:53:25.209Z,3.56
2022-11-23T07:58:28.155Z,3.62
2022-11-23T08:03:32.497Z,3.69
2022-11-23T08:08:36.560Z,3.79
2022-11-23T08:13:39.481Z,3.84
2022-11-23T08:18:43.734Z,3.86
2022-11-23T08:23:46.474Z,3.89
2022-11-23T08:28:49.223Z,3.90
2022-11-23T08:33:53.493Z,3.90
2022-11-23T08:38:56.216Z,3.83
2022-11-23T08:43:59.127Z,3.82
2022-11-23T08:49:03.648Z,3.88
2022-11-23T08:54:06.397Z,3.93
2022-11-23T08:59:09.644Z,4.03
2022-11-23T09:04:19.204Z,4.12
2022-11-23T09:09:23.339Z,4.21
2022-11-23T09:14:27.822Z,4.31
2022-11-23T09:19:32.180Z,4.36
2022-11-23T09:24:35.249Z,4.45
2022-11-23T09:29:38.199Z,4.52
2022-11-23T09:34:42.401Z,4.57
2022-11-23T09:39:45.225Z,4.60
2022-11-23T09:45:08.942Z,4.59
2022-11-23T09:50:19.050Z,4.66
2022-11-23T09:55:34.322Z,4.67
2022-11-23T10:00:40.493Z,4.69
2022-11-23T10:05:48.986Z,4.74
2022-11-23T10:10:59.330Z,4.81
2022-11-23T10:16:15.506Z,4.89
2022-11-23T10:21:29.916Z,4.96
2022-11-23T10:26:35.782Z,4.98
2022-11-23T10:31:38.576Z,5.02
2022-11-23T10:36:43.238Z,5.04
2022-11-23T10:41:46.874Z,5.17
2022-11-23T10:46:49.619Z,5.25
2022-11-23T10:51:58.765Z,5.23
2022-11-23T10:57:03.513Z,5.31
2022-11-23T11:02:17.550Z,5.34
2022-11-23T11:07:25.384Z,5.39
2022-11-23T11:12:30.313Z,5.47
2022-11-23T11:17:34.822Z,5.51
2022-11-23T11:22:44.702Z,5.48
2022-11-23T11:27:53.232Z,5.62
2022-11-23T11:33:05.080Z,5.70
2022-11-23T11:38:16.334Z,5.78
2022-11-23T11:43:31.247Z,5.88
2022-11-23T11:48:41.321Z,5.92
2022-11-23T11:53:54.426Z,5.91
2022-11-23T11:59:04.168Z,6.08
2022-11-23T12:04:09.158Z,6.28
2022-11-23T12:09:18.675Z,6.38
2022-11-23T12:14:22.444Z,6.42
2022-11-23T12:19:31.739Z,6.44
2022-11-23T12:24:55.165Z,6.48
2022-11-23T12:30:18.353Z,6.52
2022-11-23T12:35:49.455Z,6.54
2022-11-23T12:41:19.874Z,6.58
2022-11-23T12:46:31.556Z,6.63
2022-11-23T12:51:41.256Z,6.65
2022-11-23T12:56:57.459Z,6.67
2022-11-23T13:02:05.115Z,6.69
2022-11-23T13:07:49.285Z,6.65
2022-11-23T13:13:23.244Z,6.59
2022-11-23T13:18:44.058Z,6.49
2022-11-23T13:23:46.976Z,6.50
2022-11-23T13:28:53.162Z,6.54
2022-11-23T13:33:57.624Z,6.60
2022-11-23T13:39:01.556Z,6.68
2022-11-23T13:44:19.645Z,6.73
2022-11-23T13:49:32.151Z,6.73
2022-11-23T13:54:35.060Z,6.66
2022-11-23T13:59:39.557Z,6.63
2022-11-23T14:04:43.675Z,6.58
2022-11-23T14:09:51.433Z,6.56
2022-11-23T14:15:07.460Z,6.49
2022-11-23T14:20:25.089Z,6.43
2022-11-23T14:25:37.208Z,6.31
2022-11-23T14:30:53.659Z,6.12
2022-11-23T14:36:07.496Z,5.84
2022-11-23T14:41:15.993Z,5.64
2022-11-23T14:46:24.812Z,5.50
2022-11-23T14:51:27.908Z,5.38
2022-11-23T14:56:35.033Z,5.23
2022-11-23T15:01:42.615Z,5.16
2022-11-23T15:06:48.968Z,5.14
2022-11-23T15:11:51.770Z,5.05
2022-11-23T15:16:55.928Z,5.00
2022-11-23T15:21:59.295Z,4.96
2022-11-23T15:27:12.104Z,4.91
2022-11-23T15:32:31.168Z,4.81
2022-11-23T15:37:42.042Z,4.71
2022-11-23T15:42:45.985Z,4.59
2022-11-23T15:47:50.260Z,4.43
2022-11-23T15:52:53.371Z,4.32
2022-11-23T15:57:57.008Z,4.25
2022-11-23T16:03:35.710Z,4.20
2022-11-23T16:08:41.003Z,4.08
2022-11-23T16:13:45.850Z,4.01
2022-11-23T16:18:56.611Z,3.96
2022-11-23T16:24:01.191Z,3.92
2022-11-23T16:29:05.829Z,3.86
2022-11-23T16:34:16.331Z,3.82
2022-11-23T16:39:19.141Z,3.78
2022-11-23T16:44:21.908Z,3.78
2022-11-23T16:49:26.200Z,3.70
2022-11-23T16:54:29.091Z,3.64
2022-11-23T16:59:32.868Z,3.59
2022-11-23T17:04:37.464Z,3.57
2022-11-23T17:09:40.647Z,3.59
2022-11-23T17:14:45.286Z,3.57
2022-11-23T17:19:49.777Z,3.54
2022-11-23T17:24:54.433Z,3.52
2022-11-23T17:30:00.629Z,3.51
2022-11-23T17:35:05.661Z,3.49
2022-11-23T17:40:14.938Z,3.48
2022-11-23T17:45:18.030Z,3.47
2022-11-23T17:50:23.699Z,3.45
2022-11-23T17:55:26.480Z,3.42
2022-11-23T18:00:30.307Z,3.37
2022-11-23T18:05:34.555Z,3.37
2022-11-23T18:10:37.413Z,3.44
2022-11-23T18:15:40.462Z,3.53
2022-11-23T18:20:44.660Z,3.56
2022-11-23T18:25:47.661Z,3.62
2022-11-23T18:30:50.439Z,3.68
2022-11-23T18:35:54.598Z,3.75
2022-11-23T18:40:57.361Z,3.81
2022-11-23T18:46:00.877Z,3.83
2022-11-23T18:51:05.285Z,3.83
2022-11-23T18:56:09.985Z,3.85
2022-11-23T19:01:14.270Z,3.88
2022-11-23T19:06:20.424Z,3.88
2022-11-23T19:11:25.553Z,3.90
2022-11-23T19:16:31.412Z,3.94
2022-11-23T19:21:37.408Z,3.96
2022-11-23T19:26:40.475Z,4.01
2022-11-23T19:31:43.284Z,4.01
2022-11-23T19:36:47.485Z,4.03
2022-11-23T19:41:50.540Z,4.02
2022-11-23T19:46:53.319Z,4.02
2022-11-23T19:51:58.012Z,4.06
2022-11-23T19:57:01.113Z,4.01
2022-11-23T20:02:03.940Z,4.01
2022-11-23T20:07:08.233Z,4.02
2022-11-23T20:12:11.199Z,4.03
2022-11-23T20:17:13.965Z,4.00
2022-11-23T20:22:18.263Z,3.98
2022-11-23T20:27:21.523Z,3.96
2022-11-23T20:32:24.345Z,3.96
2022-11-23T20:37:28.477Z,3.95
2022-11-23T20:42:31.313Z,3.90
2022-11-23T20:47:34.128Z,3.87
2022-11-23T20:52:38.385Z,3.85
2022-11-23T20:57:41.168Z,3.86
2022-11-23T21:02:44.346Z,3.85
2022-11-23T21:07:49.562Z,3.83
2022-11-23T21:13:10.394Z,3.82
2022-11-23T21:18:13.489Z,3.81
2022-11-23T21:23:17.592Z,3.81
2022-11-23T21:28:20.339Z,3.75
2022-11-23T21:33:23.118Z,3.69
2022-11-23T21:38:31.197Z,3.61
2022-11-23T21:43:34.337Z,3.55
2022-11-23T21:48:38.575Z,3.52
2022-11-23T21:53:42.953Z,3.51
2022-11-23T21:58:46.020Z,3.47
2022-11-23T22:03:51.045Z,3.45
2022-11-23T22:08:56.911Z,3.43
2022-11-23T22:14:01.160Z,3.40
2022-11-23T22:19:05.026Z,3.40
2022-11-23T22:24:12.697Z,3.38
2022-11-23T22:29:15.561Z,3.38
2022-11-23T22:34:18.477Z,3.40
2022-11-23T22:39:22.591Z,3.38
2022-11-23T22:44:25.315Z,3.36
2022-11-23T22:49:28.050Z,3.31
2022-11-23T22:54:32.553Z,3.29
2022-11-23T22:59:35.479Z,3.27
2022-11-23T23:04:38.249Z,3.26
2022-11-23T23:09:42.330Z,3.28
2022-11-23T23:14:45.111Z,3.28
2022-11-23T23:19:47.843Z,3.32
2022-11-23T23:24:51.912Z,3.32
2022-11-23T23:29:54.657Z,3.36
2022-11-23T23:34:57.413Z,3.38
2022-11-23T23:40:01.499Z,3.41
2022-11-23T23:45:04.253Z,3.41
2022-11-23T23:50:08.299Z,3.41
2022-11-23T23:55:12.568Z,3.43
